Time;durP1;ratioP1;P1;durP2;ratioP2;P2;SDS_P1;SDS_P2;PMS_P1;PMS_P2;Temp;Humidity;BMP_temperature;BMP_pressure;BME280_temperature;BME280_humidity;BME280_pressure;Samples;Min_cycle;Max_cycle;Signal;HPM_P1;HPM_P2
2023/01/14 05:46:10;;;;;;;2.58;1.95;;;2.40;99.90;;;;;;4961508;29;20247;-76
2023/01/14 05:48:37;;;;;;;3.80;2.15;;;2.30;99.90;;;;;;4960977;29;20236;-74
2023/01/14 05:51:06;;;;;;;7.72;2.33;;;2.30;99.90;;;;;;4960174;29;20237;-77
2023/01/14 05:53:34;;;;;;;5.10;2.22;;;2.30;99.90;;;;;;4959667;29;20172;-76
2023/01/14 05:56:01;;;;;;;6.90;2.58;;;2.30;99.90;;;;;;4945696;29;20564;-76
2023/01/14 05:58:29;;;;;;;7.13;2.50;;;2.30;99.90;;;;;;4938462;29;20220;-76
2023/01/14 06:06:33;;;;;;;5.07;2.20;;;2.20;99.90;;;;;;4936785;29;20183;-77
2023/01/14 06:09:01;;;;;;;5.43;2.45;;;2.20;99.90;;;;;;4936770;29;20193;-76
2023/01/14 06:11:32;;;;;;;6.88;2.42;;;2.10;99.90;;;;;;4936284;29;20232;-76
2023/01/14 06:14:01;;;;;;;8.75;3.05;;;2.10;99.90;;;;;;4936723;29;20216;-76
2023/01/14 06:16:38;;;;;;;8.85;3.35;;;2.10;99.90;;;;;;4936891;29;20204;-76
2023/01/14 06:19:05;;;;;;;4.85;2.17;;;2.00;99.90;;;;;;4936901;29;20197;-76
2023/01/14 06:21:32;;;;;;;9.48;3.10;;;2.00;99.90;;;;;;4936743;29;20220;-76
2023/01/14 06:23:59;;;;;;;6.20;2.17;;;1.90;99.90;;;;;;4936599;29;20208;-77
2023/01/14 06:26:27;;;;;;;6.18;1.95;;;1.90;99.90;;;;;;4936528;29;20204;-76
2023/01/14 06:29:00;;;;;;;6.03;1.92;;;1.90;99.90;;;;;;4936622;29;20325;-76
2023/01/14 06:31:28;;;;;;;6.57;1.77;;;1.90;99.90;;;;;;4936240;29;20585;-76
2023/01/14 06:33:56;;;;;;;5.70;2.10;;;2.00;99.90;;;;;;4936367;29;20212;-76
2023/01/14 06:36:23;;;;;;;7.40;1.75;;;2.00;99.90;;;;;;4936405;29;20228;-76
2023/01/14 06:38:50;;;;;;;6.78;1.83;;;2.00;99.90;;;;;;4936023;29;20235;-76
2023/01/14 06:41:16;;;;;;;5.93;2.20;;;2.00;99.90;;;;;;4936281;29;20232;-76
2023/01/14 06:43:44;;;;;;;5.75;2.03;;;2.00;99.90;;;;;;4936141;29;20216;-76
2023/01/14 06:46:13;;;;;;;3.83;1.35;;;2.00;99.90;;;;;;4936449;29;20228;-75
2023/01/14 06:48:41;;;;;;;6.32;2.13;;;2.00;99.90;;;;;;4937940;29;20205;-75
2023/01/14 06:51:09;;;;;;;6.10;1.67;;;2.00;99.90;;;;;;4939691;29;20719;-75
2023/01/14 06:53:36;;;;;;;9.88;2.15;;;2.00;99.90;;;;;;4939974;29;20205;-75
2023/01/14 06:56:04;;;;;;;1.73;1.40;;;2.00;99.90;;;;;;4939982;29;20204;-75
2023/01/14 06:58:31;;;;;;;3.60;1.67;;;2.10;99.90;;;;;;4940017;29;20213;-76
2023/01/14 07:00:59;;;;;;;4.82;1.73;;;2.10;99.90;;;;;;4939784;29;20209;-76
2023/01/14 07:03:27;;;;;;;2.00;1.17;;;2.10;99.90;;;;;;4939822;29;20211;-75
2023/01/14 07:05:54;;;;;;;6.90;2.10;;;2.10;99.90;;;;;;4939870;29;20578;-75
2023/01/14 07:08:21;;;;;;;8.23;2.13;;;2.10;99.90;;;;;;4939942;29;20208;-76
2023/01/14 07:10:50;;;;;;;3.28;1.83;;;2.00;99.90;;;;;;4939668;29;20221;-76
2023/01/14 07:13:17;;;;;;;4.05;1.58;;;1.90;99.90;;;;;;4939624;29;20229;-75
2023/01/14 07:15:44;;;;;;;4.88;1.80;;;1.90;99.90;;;;;;4940052;29;20260;-74
2023/01/14 07:18:11;;;;;;;7.03;1.40;;;1.90;99.90;;;;;;4939754;29;20672;-73
2023/01/14 07:20:41;;;;;;;7.60;1.80;;;1.90;99.90;;;;;;4939705;29;20200;-73
2023/01/14 07:23:08;;;;;;;5.78;1.77;;;1.90;99.90;;;;;;4939901;29;20236;-74
2023/01/14 07:25:36;;;;;;;4.90;1.60;;;1.90;99.90;;;;;;4939902;29;20205;-74
2023/01/14 07:28:04;;;;;;;5.38;1.70;;;1.90;99.90;;;;;;4939241;29;20568;-74
2023/01/14 07:30:30;;;;;;;4.68;1.45;;;1.90;99.90;;;;;;4938931;29;20217;-73
2023/01/14 07:32:59;;;;;;;5.55;1.63;;;2.00;99.90;;;;;;4939289;29;20231;-74
2023/01/14 07:35:26;;;;;;;5.50;1.58;;;2.00;99.90;;;;;;4939318;29;20232;-74
2023/01/14 07:37:56;;;;;;;5.38;1.40;;;2.10;99.90;;;;;;4939314;29;20201;-75
2023/01/14 07:40:23;;;;;;;6.10;1.90;;;2.20;99.90;;;;;;4939213;29;20232;-75
2023/01/14 07:42:55;;;;;;;7.97;3.58;;;2.30;99.90;;;;;;4939353;29;20225;-75
2023/01/14 07:45:21;;;;;;;7.78;2.10;;;2.40;99.90;;;;;;4938911;29;20220;-75
2023/01/14 07:47:48;;;;;;;10.20;2.63;;;2.50;99.90;;;;;;4939472;29;20266;-75
2023/01/14 07:50:15;;;;;;;6.15;2.03;;;2.60;99.90;;;;;;4947896;29;20224;-75
2023/01/14 07:52:42;;;;;;;8.10;2.30;;;2.60;99.90;;;;;;4952869;29;20251;-75
2023/01/14 07:55:10;;;;;;;7.32;2.10;;;2.60;99.90;;;;;;4953132;29;20209;-75
2023/01/14 07:57:37;;;;;;;4.82;2.05;;;2.60;99.90;;;;;;4947250;29;20204;-75
2023/01/14 08:00:06;;;;;;;4.25;1.92;;;2.60;99.90;;;;;;4937685;29;20665;-75
2023/01/14 08:02:34;;;;;;;3.08;2.00;;;2.70;99.90;;;;;;4938732;29;20220;-75
2023/01/14 08:05:00;;;;;;;5.55;2.45;;;2.70;99.90;;;;;;4938848;29;20209;-75
2023/01/14 08:07:27;;;;;;;9.77;2.50;;;2.70;99.90;;;;;;4938630;29;20228;-74
2023/01/14 08:09:54;;;;;;;5.35;2.88;;;2.70;99.90;;;;;;4938740;29;20211;-74
2023/01/14 08:12:22;;;;;;;7.82;2.28;;;2.80;99.90;;;;;;4938555;29;20235;-75
2023/01/14 08:14:48;;;;;;;6.15;2.33;;;2.80;99.90;;;;;;4938585;29;20208;-76
2023/01/14 08:17:15;;;;;;;5.97;2.30;;;2.90;99.90;;;;;;4938726;29;20208;-76
2023/01/14 08:19:43;;;;;;;9.05;3.42;;;3.00;99.90;;;;;;4938452;29;20201;-75
2023/01/14 08:22:11;;;;;;;9.35;3.00;;;3.40;99.90;;;;;;4938213;29;20700;-75
2023/01/14 08:24:38;;;;;;;17.17;4.25;;;4.10;99.90;;;;;;4937981;29;20240;-75
2023/01/14 08:27:05;;;;;;;17.02;5.00;;;4.70;99.90;;;;;;4938233;29;20205;-74
2023/01/14 08:29:33;;;;;;;15.93;4.43;;;5.30;99.90;;;;;;4938441;29;20217;-74
2023/01/14 08:32:00;;;;;;;13.80;5.63;;;5.80;99.90;;;;;;4938329;29;20229;-74
2023/01/14 08:34:28;;;;;;;14.40;6.03;;;6.20;99.90;;;;;;4938163;29;20200;-73
2023/01/14 08:36:55;;;;;;;8.60;4.45;;;6.30;99.90;;;;;;4938149;29;20205;-73
2023/01/14 08:39:22;;;;;;;8.52;3.50;;;6.20;99.90;;;;;;4938081;29;20201;-73
2023/01/14 08:41:48;;;;;;;7.90;3.35;;;6.20;99.90;;;;;;4938159;29;20248;-73
2023/01/14 08:44:15;;;;;;;14.05;3.83;;;6.10;99.90;;;;;;4938037;29;20217;-73
2023/01/14 08:46:43;;;;;;;7.70;3.30;;;6.00;99.90;;;;;;4938115;29;20204;-73
2023/01/14 08:49:11;;;;;;;10.40;6.68;;;5.90;99.90;;;;;;4937731;29;20334;-73
2023/01/14 08:51:37;;;;;;;10.68;5.70;;;5.70;99.90;;;;;;4937891;29;20237;-74
2023/01/14 08:54:04;;;;;;;11.93;3.75;;;5.50;99.90;;;;;;4937904;29;20200;-77
2023/01/14 08:56:31;;;;;;;6.82;2.70;;;5.40;99.90;;;;;;4937806;29;20724;-75
2023/01/14 08:58:58;;;;;;;10.77;3.20;;;5.40;99.90;;;;;;4937763;29;20217;-74
2023/01/14 09:01:25;;;;;;;6.47;2.22;;;5.50;99.90;;;;;;4937754;29;20580;-74
2023/01/14 09:03:57;;;;;;;5.65;2.25;;;5.50;99.90;;;;;;4937904;29;20209;-71
2023/01/14 09:19:18;;;;;;;6.75;2.45;;;5.20;99.90;;;;;;5080544;28;20324;-76
2023/01/14 09:21:45;;;;;;;8.10;3.00;;;5.20;99.90;;;;;;5091390;28;20223;-76
2023/01/14 09:24:13;;;;;;;6.65;2.53;;;5.30;99.90;;;;;;5091641;28;20191;-76
2023/01/14 09:26:40;;;;;;;5.45;2.20;;;5.30;99.90;;;;;;5090959;28;20579;-76
2023/01/14 09:29:07;;;;;;;7.57;2.30;;;5.30;99.90;;;;;;5091327;28;20203;-76
2023/01/14 09:31:34;;;;;;;9.48;3.00;;;5.40;99.90;;;;;;5090796;28;20725;-76
2023/01/14 09:34:00;;;;;;;6.57;2.50;;;5.40;99.90;;;;;;5091405;28;20203;-76
2023/01/14 09:36:29;;;;;;;6.45;2.15;;;5.30;99.90;;;;;;5091411;28;20245;-76
2023/01/14 09:38:56;;;;;;;6.15;3.63;;;5.30;99.90;;;;;;5090982;28;20340;-76
2023/01/14 09:41:30;;;;;;;6.72;2.03;;;5.60;99.90;;;;;;5090919;28;20702;-76
2023/01/14 09:43:58;;;;;;;4.63;1.85;;;5.70;99.90;;;;;;5090842;28;20184;-76
2023/01/14 09:46:27;;;;;;;4.95;1.92;;;6.00;99.90;;;;;;5092184;28;20220;-78
2023/01/14 09:48:55;;;;;;;6.15;2.53;;;6.20;99.90;;;;;;5094211;28;20203;-78
2023/01/14 09:51:42;;;;;;;8.27;2.83;;;6.40;99.90;;;;;;5091383;28;20223;-77
2023/01/14 09:54:14;;;;;;;9.93;3.70;;;6.60;99.90;;;;;;5091954;28;20191;-77
2023/01/14 09:56:47;;;;;;;6.68;2.35;;;6.70;99.90;;;;;;5092094;28;20180;-76
2023/01/14 09:59:24;;;;;;;6.15;1.83;;;6.90;99.90;;;;;;5090920;28;20184;-77
2023/01/14 10:01:57;;;;;;;9.57;1.73;;;6.90;99.90;;;;;;5091548;28;20215;-76
2023/01/14 10:04:41;;;;;;;6.47;1.90;;;6.90;99.90;;;;;;5090588;28;20184;-75
2023/01/14 10:07:10;;;;;;;5.72;1.80;;;6.80;99.90;;;;;;5091000;28;20245;-76
2023/01/14 10:09:43;;;;;;;4.05;1.77;;;6.70;99.90;;;;;;5091463;28;20253;-77
2023/01/14 10:12:17;;;;;;;4.13;1.55;;;6.50;99.90;;;;;;5093132;28;20241;-76
2023/01/14 10:14:50;;;;;;;4.00;1.83;;;6.40;99.90;;;;;;5092680;28;20187;-77
2023/01/14 10:17:21;;;;;;;6.18;1.30;;;6.30;99.90;;;;;;5092955;28;20188;-76
2023/01/14 10:19:50;;;;;;;7.55;1.80;;;6.30;99.90;;;;;;5078252;28;20192;-78
2023/01/14 10:22:31;;;;;;;11.27;1.58;;;6.30;99.90;;;;;;5076520;28;20220;-77
2023/01/14 10:24:58;;;;;;;3.75;1.42;;;6.40;99.90;;;;;;5079441;28;20192;-75
2023/01/14 10:27:31;;;;;;;6.45;1.50;;;6.40;99.90;;;;;;5077046;28;20269;-76
2023/01/14 10:30:16;;;;;;;6.05;1.63;;;6.30;99.90;;;;;;5076173;28;20687;-77
2023/01/14 10:32:44;;;;;;;4.15;1.30;;;6.30;99.90;;;;;;5079597;28;20242;-77
2023/01/14 10:35:16;;;;;;;6.70;1.77;;;6.40;99.90;;;;;;5080248;28;20596;-77
2023/01/14 10:37:43;;;;;;;6.60;1.80;;;6.40;99.90;;;;;;5080251;28;20207;-77
2023/01/14 10:40:21;;;;;;;4.00;1.65;;;6.40;99.90;;;;;;5081216;28;20603;-77
2023/01/14 10:42:49;;;;;;;5.60;1.98;;;6.40;99.90;;;;;;5080666;28;20246;-77
2023/01/14 10:45:17;;;;;;;7.07;2.47;;;6.30;99.90;;;;;;5080532;28;20200;-77
2023/01/14 10:47:46;;;;;;;4.05;2.30;;;6.30;99.90;;;;;;5080450;28;20216;-76
2023/01/14 10:50:21;;;;;;;5.60;1.48;;;6.30;99.90;;;;;;5080117;28;20203;-76
2023/01/14 10:52:49;;;;;;;5.35;1.65;;;6.50;99.90;;;;;;5079420;28;20272;-76
2023/01/14 10:55:19;;;;;;;4.95;1.88;;;6.30;99.90;;;;;;5079905;28;20559;-77
2023/01/14 10:57:51;;;;;;;8.63;1.80;;;6.30;99.90;;;;;;5081218;28;20573;-74
2023/01/14 11:00:40;;;;;;;3.13;1.83;;;6.40;99.90;;;;;;5080534;28;20189;-74
2023/01/14 11:03:09;;;;;;;3.08;1.52;;;6.50;99.90;;;;;;5076461;28;20228;-74
2023/01/14 11:05:39;;;;;;;11.90;2.75;;;6.40;99.90;;;;;;5081334;28;20235;-76
2023/01/14 11:08:22;;;;;;;6.45;2.20;;;6.50;99.90;;;;;;5080092;28;20234;-75
2023/01/14 11:10:56;;;;;;;4.65;2.22;;;6.50;99.90;;;;;;5080811;28;20188;-75
2023/01/14 11:13:31;;;;;;;4.10;1.83;;;6.50;99.90;;;;;;5080646;28;20616;-77
2023/01/14 11:15:58;;;;;;;4.25;1.58;;;6.50;99.90;;;;;;5082018;28;20628;-77
2023/01/14 11:18:28;;;;;;;7.50;2.35;;;6.50;99.90;;;;;;5081172;28;20200;-77
2023/01/14 11:21:13;;;;;;;2.83;1.65;;;6.60;99.90;;;;;;5079388;28;20295;-76
2023/01/14 11:23:43;;;;;;;7.43;2.25;;;6.60;99.90;;;;;;5079136;28;20188;-76
2023/01/14 11:26:12;;;;;;;5.50;1.60;;;6.60;99.90;;;;;;5077174;28;20278;-78
2023/01/14 11:28:47;;;;;;;8.77;2.10;;;6.50;99.90;;;;;;5076052;28;20223;-77
2023/01/14 11:31:15;;;;;;;4.00;1.70;;;6.50;99.90;;;;;;5074930;28;20199;-77
2023/01/14 11:33:50;;;;;;;7.60;1.70;;;6.50;99.90;;;;;;5077480;28;20561;-78
2023/01/14 11:36:22;;;;;;;7.63;2.20;;;6.50;99.90;;;;;;5078306;28;20516;-77
2023/01/14 11:38:49;;;;;;;3.53;1.52;;;6.50;99.90;;;;;;5079229;28;20191;-80
2023/01/14 11:41:43;;;;;;;9.77;2.53;;;6.50;99.90;;;;;;5091523;28;20188;-79
2023/01/14 11:44:32;;;;;;;5.10;1.75;;;6.60;99.90;;;;;;5052307;28;20200;-79
2023/01/14 11:47:11;;;;;;;4.40;2.30;;;6.60;99.90;;;;;;5084326;28;20227;-79
2023/01/14 11:49:38;;;;;;;5.00;2.10;;;6.60;99.90;;;;;;5087807;28;20203;-80
2023/01/14 11:52:16;;;;;;;3.58;1.70;;;6.50;99.90;;;;;;5082834;28;20251;-78
2023/01/14 11:54:44;;;;;;;3.10;1.40;;;6.60;99.90;;;;;;5079807;28;20180;-78
2023/01/14 11:57:15;;;;;;;6.18;1.70;;;6.70;99.90;;;;;;5078022;28;20247;-78
2023/01/14 11:59:45;;;;;;;5.43;2.03;;;6.90;99.90;;;;;;5078830;28;20184;-77
2023/01/14 12:02:20;;;;;;;3.78;1.90;;;6.80;99.90;;;;;;5080665;28;20219;-77
2023/01/14 12:04:52;;;;;;;4.40;1.77;;;6.80;99.90;;;;;;5080042;28;20195;-77
2023/01/14 12:07:26;;;;;;;2.42;1.35;;;6.80;99.90;;;;;;5082059;28;20235;-79
2023/01/14 12:09:57;;;;;;;3.63;1.40;;;6.70;99.90;;;;;;5082259;28;20192;-77
2023/01/14 12:12:31;;;;;;;8.07;1.35;;;6.80;99.90;;;;;;5082668;28;20231;-78
2023/01/14 12:17:55;;;;;;;5.05;2.42;;;6.80;99.90;;;;;;5083541;28;20650;-78
2023/01/14 12:20:26;;;;;;;5.03;2.13;;;6.90;99.90;;;;;;5081559;28;20195;-78
2023/01/14 12:23:00;;;;;;;7.85;2.60;;;6.80;99.90;;;;;;5079170;28;20224;-78
2023/01/14 12:25:30;;;;;;;3.28;1.67;;;6.70;99.90;;;;;;5076684;28;20215;-77
2023/01/14 12:28:02;;;;;;;2.78;1.50;;;6.70;99.90;;;;;;5076505;28;20211;-78
2023/01/14 12:30:46;;;;;;;4.90;2.03;;;6.60;99.90;;;;;;5077934;28;20744;-79
2023/01/14 12:33:23;;;;;;;7.15;1.83;;;6.60;99.90;;;;;;5077225;28;20583;-78
2023/01/14 12:35:55;;;;;;;7.75;1.95;;;6.60;99.90;;;;;;5076126;28;20597;-78
2023/01/14 12:47:03;;;;;;;6.95;2.33;;;6.40;99.90;;;;;;5082716;28;20172;-78
2023/01/14 12:49:32;;;;;;;4.18;2.35;;;6.40;99.90;;;;;;5082914;28;20184;-78
2023/01/14 12:52:00;;;;;;;5.93;3.28;;;6.40;99.90;;;;;;5082929;28;20736;-78
2023/01/14 12:54:32;;;;;;;12.93;7.72;;;6.50;99.90;;;;;;5082724;28;20200;-78
2023/01/14 12:57:00;;;;;;;8.80;4.00;;;6.40;99.90;;;;;;5083691;28;20222;-78
2023/01/14 12:59:31;;;;;;;7.88;2.88;;;6.40;99.90;;;;;;5084933;28;20200;-78
2023/01/14 13:02:02;;;;;;;13.18;6.72;;;6.40;99.90;;;;;;5083903;28;20230;-78
2023/01/14 13:04:35;;;;;;;7.00;2.67;;;6.50;99.90;;;;;;5083978;28;20184;-78
2023/01/14 13:07:04;;;;;;;4.32;1.98;;;6.60;99.90;;;;;;5084212;28;20214;-78
2023/01/14 13:09:36;;;;;;;5.97;2.03;;;6.70;99.90;;;;;;5075054;28;20204;-77
2023/01/14 13:12:04;;;;;;;7.57;3.15;;;6.80;99.90;;;;;;5073750;28;20223;-76
2023/01/14 13:14:37;;;;;;;7.28;1.95;;;6.80;99.90;;;;;;5073555;28;20686;-76
2023/01/14 13:17:07;;;;;;;3.40;1.30;;;6.90;99.90;;;;;;5073669;28;20188;-76
2023/01/14 13:19:50;;;;;;;5.72;2.20;;;6.90;99.90;;;;;;5073816;28;20196;-76
2023/01/14 13:22:40;;;;;;;6.20;1.85;;;6.80;99.90;;;;;;5075346;28;20224;-78
2023/01/14 13:25:31;;;;;;;4.65;1.67;;;6.90;99.90;;;;;;5075781;28;20203;-77
2023/01/14 13:27:58;;;;;;;4.38;2.40;;;6.90;99.90;;;;;;5073766;28;20253;-76
2023/01/14 13:30:44;;;;;;;5.90;2.10;;;7.00;99.90;;;;;;5077496;28;20263;-78
2023/01/14 13:33:24;;;;;;;5.50;1.90;;;7.00;99.90;;;;;;5082682;28;20220;-78
2023/01/14 13:36:16;;;;;;;2.90;1.63;;;6.90;99.90;;;;;;5082003;28;20184;-78
2023/01/14 13:38:46;;;;;;;4.40;1.42;;;6.90;99.90;;;;;;5080188;28;20200;-78
2023/01/14 13:41:33;;;;;;;6.75;3.78;;;6.90;99.90;;;;;;5080196;28;20184;-78
2023/01/14 13:44:01;;;;;;;2.95;2.08;;;6.80;99.90;;;;;;5080817;28;20204;-79
2023/01/14 13:46:33;;;;;;;5.28;1.55;;;6.80;99.90;;;;;;5077639;28;20196;-80
2023/01/14 13:49:02;;;;;;;6.78;2.00;;;6.80;99.90;;;;;;5075338;28;20208;-80
2023/01/14 13:51:38;;;;;;;7.43;1.50;;;6.80;99.90;;;;;;5075239;28;20220;-79
2023/01/14 13:54:09;;;;;;;4.97;1.63;;;6.80;99.90;;;;;;5078144;28;20184;-79
2023/01/14 13:56:37;;;;;;;3.85;1.60;;;6.80;99.90;;;;;;5079874;28;20191;-79
2023/01/14 13:59:04;;;;;;;3.03;1.33;;;6.90;99.90;;;;;;5078388;28;20204;-79
2023/01/14 14:01:46;;;;;;;4.05;1.63;;;6.90;99.90;;;;;;5077177;28;20235;-78
2023/01/14 14:04:14;;;;;;;3.60;1.42;;;7.00;99.90;;;;;;5077501;28;20195;-78
2023/01/14 14:06:46;;;;;;;4.13;2.03;;;7.00;99.90;;;;;;5077289;28;20209;-78
2023/01/14 14:09:18;;;;;;;7.03;1.73;;;7.00;99.90;;;;;;5079543;28;20200;-78
2023/01/14 14:11:55;;;;;;;4.20;1.40;;;7.00;99.90;;;;;;5078660;28;20587;-78
2023/01/14 14:14:26;;;;;;;6.13;3.15;;;6.90;99.90;;;;;;5079438;28;20195;-78
2023/01/14 14:16:58;;;;;;;9.07;3.33;;;6.90;99.90;;;;;;5079628;28;20223;-78
2023/01/14 14:19:27;;;;;;;10.40;3.20;;;6.80;99.90;;;;;;5079829;28;20188;-78
2023/01/14 14:22:00;;;;;;;4.38;1.83;;;6.80;99.90;;;;;;5083652;28;20220;-78
2023/01/14 14:24:33;;;;;;;6.85;2.30;;;6.70;99.90;;;;;;5092029;28;20188;-78
2023/01/14 14:27:09;;;;;;;1.85;1.60;;;6.70;99.90;;;;;;5094936;28;20199;-77
2023/01/14 14:29:39;;;;;;;5.32;1.92;;;6.70;99.90;;;;;;5081044;28;20208;-78
2023/01/14 14:32:11;;;;;;;12.93;4.60;;;6.70;99.90;;;;;;5079928;28;20223;-78
2023/01/14 14:34:41;;;;;;;10.80;2.70;;;6.80;99.90;;;;;;5080384;28;20527;-79
2023/01/14 14:37:19;;;;;;;17.27;5.07;;;6.80;99.90;;;;;;5080350;28;20200;-79
2023/01/14 14:39:53;;;;;;;8.23;3.88;;;6.80;99.90;;;;;;5080434;28;20184;-79
2023/01/14 14:42:23;;;;;;;9.18;2.70;;;6.80;99.90;;;;;;5079327;28;20281;-78
2023/01/14 14:44:54;;;;;;;7.88;1.98;;;6.80;99.90;;;;;;5078805;28;20203;-78
2023/01/14 14:47:25;;;;;;;3.20;1.38;;;6.90;99.90;;;;;;5078168;28;20207;-75
2023/01/14 14:49:53;;;;;;;2.42;2.22;;;6.90;99.90;;;;;;5076268;28;20188;-77
2023/01/14 14:52:21;;;;;;;8.35;2.10;;;6.80;99.90;;;;;;5076866;28;20224;-76
2023/01/14 14:54:49;;;;;;;2.47;1.50;;;6.80;99.90;;;;;;5076198;28;20208;-76
2023/01/14 14:57:22;;;;;;;3.83;1.65;;;6.80;99.90;;;;;;5076115;28;20200;-77
2023/01/14 14:59:51;;;;;;;7.45;3.97;;;6.80;99.90;;;;;;5075808;28;20547;-76
2023/01/14 15:02:24;;;;;;;5.82;2.78;;;6.70;99.90;;;;;;5078522;28;20278;-78
2023/01/14 15:04:53;;;;;;;7.93;2.67;;;6.70;99.90;;;;;;5078668;28;20279;-77
2023/01/14 15:07:21;;;;;;;5.38;2.10;;;6.70;99.90;;;;;;5078764;28;20212;-78
2023/01/14 15:09:49;;;;;;;11.98;5.47;;;6.60;99.90;;;;;;5080449;28;20683;-79
2023/01/14 15:12:18;;;;;;;8.13;3.50;;;6.60;99.90;;;;;;5081570;28;20224;-79
2023/01/14 15:14:55;;;;;;;6.78;3.10;;;6.60;99.90;;;;;;5080896;28;20218;-79
2023/01/14 15:17:22;;;;;;;5.03;2.67;;;6.50;99.90;;;;;;5083355;28;20645;-78
2023/01/14 15:19:50;;;;;;;6.30;3.10;;;6.40;99.90;;;;;;5081337;28;20196;-78
2023/01/14 15:22:19;;;;;;;7.43;3.13;;;6.40;99.90;;;;;;5079128;28;20730;-78
2023/01/14 15:24:51;;;;;;;6.18;3.00;;;6.40;99.90;;;;;;5079719;28;20227;-78
2023/01/14 15:27:21;;;;;;;7.18;3.83;;;6.30;99.90;;;;;;5078512;28;20251;-79
2023/01/14 15:29:56;;;;;;;6.43;3.65;;;6.30;99.90;;;;;;5077721;28;20211;-78
2023/01/14 15:32:27;;;;;;;13.02;5.45;;;6.30;99.90;;;;;;5076241;28;20219;-77
2023/01/14 15:35:07;;;;;;;9.13;3.95;;;6.30;99.90;;;;;;5080665;28;20196;-77
2023/01/14 15:37:35;;;;;;;5.95;2.80;;;6.30;99.90;;;;;;5081811;28;20184;-77
2023/01/14 15:40:04;;;;;;;5.18;2.83;;;6.30;99.90;;;;;;5085120;28;20187;-77
2023/01/14 15:42:31;;;;;;;6.68;2.33;;;6.30;99.90;;;;;;5083344;28;20224;-77
2023/01/14 15:45:00;;;;;;;7.68;2.45;;;6.30;99.90;;;;;;5088546;28;20199;-78
2023/01/14 15:47:27;;;;;;;4.35;2.00;;;6.30;99.90;;;;;;5083066;28;20192;-79
2023/01/14 15:49:55;;;;;;;6.28;1.65;;;6.20;99.90;;;;;;5079014;28;20216;-79
2023/01/14 15:52:32;;;;;;;3.33;2.15;;;6.10;99.90;;;;;;5078871;28;20220;-78
2023/01/14 15:55:11;;;;;;;6.22;2.67;;;6.00;99.90;;;;;;5076777;28;20658;-78
2023/01/14 15:57:42;;;;;;;7.10;2.40;;;5.90;99.90;;;;;;5076418;28;20202;-76
2023/01/14 16:00:19;;;;;;;2.78;2.03;;;5.80;99.90;;;;;;5077124;28;20203;-78
2023/01/14 16:02:46;;;;;;;4.95;2.38;;;5.80;99.90;;;;;;5078357;28;20243;-78
2023/01/14 16:05:21;;;;;;;8.82;3.88;;;5.80;99.90;;;;;;5074809;28;20212;-77
2023/01/14 16:07:48;;;;;;;12.98;7.45;;;5.70;99.90;;;;;;5075047;28;20214;-80
2023/01/14 16:10:17;;;;;;;8.88;4.60;;;5.70;99.90;;;;;;5078075;28;20582;-79
2023/01/14 16:12:44;;;;;;;3.42;1.73;;;5.60;99.90;;;;;;5077556;28;20216;-77
2023/01/14 16:15:17;;;;;;;2.67;2.05;;;5.60;99.90;;;;;;5076182;28;20204;-78
2023/01/14 16:17:44;;;;;;;3.50;2.08;;;5.50;99.90;;;;;;5077113;28;20655;-78
2023/01/14 16:20:14;;;;;;;6.00;2.13;;;5.50;99.90;;;;;;5079411;28;20210;-79
2023/01/14 16:22:40;;;;;;;4.10;2.65;;;5.40;99.90;;;;;;5076524;28;20227;-77
2023/01/14 16:25:08;;;;;;;2.47;1.60;;;5.40;99.90;;;;;;5074585;28;20227;-77
2023/01/14 16:27:37;;;;;;;5.13;1.92;;;5.30;99.90;;;;;;5074343;28;20195;-77
2023/01/14 16:30:06;;;;;;;7.18;3.22;;;5.30;99.90;;;;;;5074442;28;20215;-76
2023/01/14 16:32:33;;;;;;;5.45;3.20;;;5.30;99.90;;;;;;5078186;28;20227;-78
2023/01/14 16:35:00;;;;;;;4.30;3.05;;;5.30;99.90;;;;;;5080688;28;20605;-78
2023/01/14 16:37:26;;;;;;;3.63;2.78;;;5.30;99.90;;;;;;5075827;28;20211;-77
2023/01/14 16:39:53;;;;;;;3.75;3.05;;;5.20;99.90;;;;;;5078415;28;20203;-78
2023/01/14 16:42:20;;;;;;;4.22;3.28;;;5.20;99.90;;;;;;5081342;28;20227;-79
2023/01/14 16:44:48;;;;;;;5.95;3.25;;;5.20;99.90;;;;;;5079564;28;20204;-79
2023/01/14 16:47:14;;;;;;;8.48;5.22;;;5.20;99.90;;;;;;5077947;28;20195;-78
2023/01/14 16:49:41;;;;;;;27.92;13.00;;;5.10;99.90;;;;;;5077681;28;20211;-78
2023/01/14 16:52:09;;;;;;;19.60;10.75;;;5.20;99.90;;;;;;5076728;28;20226;-79
2023/01/14 16:54:38;;;;;;;13.50;6.10;;;5.10;99.90;;;;;;5076893;28;20655;-77
2023/01/14 16:57:04;;;;;;;6.75;3.67;;;5.10;99.90;;;;;;5076849;28;20226;-77
2023/01/14 16:59:31;;;;;;;4.65;2.83;;;5.10;99.90;;;;;;5078785;28;20196;-78
2023/01/14 17:01:59;;;;;;;6.75;3.42;;;5.00;99.90;;;;;;5078751;28;20220;-79
2023/01/14 17:04:26;;;;;;;15.40;4.22;;;5.00;99.90;;;;;;5074837;28;20191;-76
2023/01/14 17:06:52;;;;;;;8.35;5.25;;;5.00;99.90;;;;;;5075207;28;20211;-77
2023/01/14 17:09:19;;;;;;;9.50;6.05;;;5.00;99.90;;;;;;5079248;28;20589;-79
2023/01/14 17:14:31;;;;;;;17.42;8.63;;;5.00;99.90;;;;;;5080170;28;20190;-79
2023/01/14 17:16:59;;;;;;;12.73;6.32;;;5.00;99.90;;;;;;5075318;28;20544;-78
2023/01/14 17:19:26;;;;;;;9.35;6.25;;;5.00;99.90;;;;;;5076640;28;20195;-78
2023/01/14 17:21:52;;;;;;;11.02;6.18;;;5.10;99.90;;;;;;5087040;28;20225;-78
2023/01/14 17:24:19;;;;;;;10.43;6.38;;;5.10;99.90;;;;;;5090875;28;20200;-79
2023/01/14 17:26:46;;;;;;;11.32;6.00;;;5.20;99.90;;;;;;5080910;28;20199;-77
2023/01/14 17:29:13;;;;;;;8.65;5.53;;;5.20;99.90;;;;;;5088139;28;20211;-78
2023/01/14 17:31:40;;;;;;;8.27;5.82;;;5.30;99.90;;;;;;5081855;28;20247;-77
2023/01/14 17:34:08;;;;;;;11.25;5.20;;;5.30;99.90;;;;;;5081088;28;20206;-78
2023/01/14 17:36:34;;;;;;;13.35;7.10;;;5.30;99.90;;;;;;5080475;28;20566;-77
2023/01/14 17:44:27;;;;;;;14.27;6.28;;;5.40;99.90;;;;;;4996270;28;20210;-77
2023/01/14 17:46:54;;;;;;;14.82;6.65;;;5.40;99.90;;;;;;4996008;28;20570;-76
2023/01/14 17:49:22;;;;;;;7.50;4.50;;;5.50;99.90;;;;;;5022199;28;20220;-76
2023/01/14 17:51:49;;;;;;;9.48;3.53;;;5.50;99.90;;;;;;5057781;28;20201;-76
2023/01/14 17:54:16;;;;;;;1.52;1.52;;;5.50;99.90;;;;;;5057246;28;20694;-76
2023/01/14 17:56:42;;;;;;;5.18;2.30;;;5.60;99.90;;;;;;5057940;28;20204;-77
2023/01/14 17:59:10;;;;;;;2.60;2.40;;;5.60;99.90;;;;;;5057466;28;20196;-75
2023/01/14 18:01:36;;;;;;;2.67;1.95;;;5.60;99.90;;;;;;5057256;28;20201;-77
2023/01/14 18:04:04;;;;;;;4.00;2.90;;;5.60;99.90;;;;;;5057271;28;20687;-78
2023/01/14 18:06:33;;;;;;;6.10;4.13;;;5.70;99.90;;;;;;5057115;28;20295;-77
2023/01/14 18:09:02;;;;;;;6.20;3.70;;;5.80;99.90;;;;;;5057554;28;20613;-77
2023/01/14 18:11:29;;;;;;;4.13;2.15;;;5.90;99.90;;;;;;5056630;28;20251;-77
2023/01/14 18:13:56;;;;;;;2.22;2.08;;;6.10;99.90;;;;;;5056831;28;20611;-77
2023/01/14 18:16:22;;;;;;;3.53;1.80;;;6.30;99.90;;;;;;5057253;28;20204;-78
2023/01/14 18:18:49;;;;;;;3.70;1.92;;;6.40;99.90;;;;;;5057222;28;20204;-77
2023/01/14 18:21:17;;;;;;;1.73;1.33;;;6.40;99.90;;;;;;5057205;28;20220;-77
2023/01/14 18:23:46;;;;;;;1.38;1.13;;;6.50;99.90;;;;;;5056715;28;20730;-77
2023/01/14 18:26:14;;;;;;;0.90;0.90;;;6.70;99.90;;;;;;5057300;28;20208;-78
2023/01/14 18:28:43;;;;;;;2.30;1.95;;;6.80;99.90;;;;;;5056990;28;20208;-77
2023/01/14 18:31:10;;;;;;;6.10;2.83;;;6.90;99.90;;;;;;5056867;28;20311;-77
2023/01/14 18:33:37;;;;;;;3.85;1.70;;;6.90;99.90;;;;;;5057069;28;20231;-78
2023/01/14 18:36:04;;;;;;;1.48;1.30;;;7.10;99.90;;;;;;5056922;28;20247;-77
2023/01/14 18:38:31;;;;;;;0.95;0.95;;;7.10;99.90;;;;;;5056747;28;20200;-75
2023/01/14 18:41:04;;;;;;;1.60;0.85;;;7.30;99.90;;;;;;5056084;28;20228;-74
2023/01/14 18:43:31;;;;;;;0.93;0.90;;;7.20;99.90;;;;;;5056683;28;20193;-75
2023/01/14 18:45:58;;;;;;;1.10;1.10;;;7.30;99.90;;;;;;5056850;28;20224;-75
2023/01/14 18:48:25;;;;;;;2.20;1.05;;;7.20;99.90;;;;;;5056174;28;20204;-75
2023/01/14 18:50:52;;;;;;;0.90;0.90;;;7.10;99.90;;;;;;5056260;28;20228;-75
2023/01/14 18:53:18;;;;;;;2.55;2.28;;;7.10;99.90;;;;;;5056526;28;20207;-75
2023/01/14 18:55:45;;;;;;;1.00;1.00;;;7.10;99.90;;;;;;5056379;28;20205;-75
2023/01/14 18:58:13;;;;;;;1.73;0.70;;;7.10;99.90;;;;;;5055980;28;20200;-75
2023/01/14 19:00:40;;;;;;;0.73;0.73;;;7.00;99.90;;;;;;5056311;28;20243;-74
2023/01/14 19:03:07;;;;;;;3.13;1.00;;;7.00;99.90;;;;;;5056020;28;20200;-75
2023/01/14 19:05:33;;;;;;;2.05;1.95;;;7.00;99.90;;;;;;5056070;28;20200;-75
2023/01/14 19:08:00;;;;;;;2.05;1.20;;;7.10;99.90;;;;;;5056204;28;20204;-74
2023/01/14 19:10:27;;;;;;;1.08;0.90;;;7.10;99.90;;;;;;5055989;28;20220;-73
2023/01/14 19:12:54;;;;;;;3.67;1.52;;;7.10;99.90;;;;;;5056407;28;20205;-74
2023/01/14 19:15:22;;;;;;;1.40;1.20;;;7.10;99.90;;;;;;5055639;28;20200;-73
2023/01/14 19:17:49;;;;;;;2.45;1.40;;;7.00;99.90;;;;;;5055702;28;20568;-75
2023/01/14 19:20:16;;;;;;;2.78;1.73;;;7.00;99.90;;;;;;5056556;28;20232;-76
2023/01/14 19:22:43;;;;;;;1.00;1.00;;;7.00;99.90;;;;;;5055868;28;20208;-76
2023/01/14 19:25:10;;;;;;;2.13;1.20;;;6.90;99.90;;;;;;5055623;28;20208;-74
2023/01/14 19:27:38;;;;;;;1.42;1.27;;;6.90;99.90;;;;;;5055705;28;20204;-74
2023/01/14 19:30:06;;;;;;;2.10;2.00;;;6.90;99.90;;;;;;5055457;28;20229;-74
2023/01/14 19:32:34;;;;;;;1.50;1.40;;;6.80;99.90;;;;;;5055566;28;20197;-73